Terminal Aerodrome Forecast
Issued by NWS Cleveland, OH

Home | Current Version | Previous Version | Graphics & Text | Print | Product List | Glossary On
Versions: 1 2 3 4 5 6 7 8 9 10 11 12 13 14 15
752
FTUS41 KCLE 220344 AAA
TAFYNG
TAF AMD
KYNG 220344Z 2204/2224 33012G22KT P6SM SCT030
      TEMPO 2204/2206 BKN030
     FM220600 35012KT P6SM BKN030
     FM221600 35012KT P6SM SCT035
     FM222200 36007KT P6SM SKC=

USA.gov is the U.S. government's official web portal to all federal, state and local government web resources and services.